sensor_id;sensor_type;location;lat;lon;timestamp;temperature;humidity
24560;DHT22;12727;49.934;8.656;2023-06-24T00:02:12;15.30;99.90
24560;DHT22;12727;49.934;8.656;2023-06-24T00:04:38;15.30;99.90
24560;DHT22;12727;49.934;8.656;2023-06-24T00:07:03;15.50;99.90
24560;DHT22;12727;49.934;8.656;2023-06-24T00:09:29;15.60;99.90
24560;DHT22;12727;49.934;8.656;2023-06-24T00:11:58;15.60;99.90
24560;DHT22;12727;49.934;8.656;2023-06-24T00:14:26;15.50;99.90
24560;DHT22;12727;49.934;8.656;2023-06-24T00:16:52;15.30;99.90
24560;DHT22;12727;49.934;8.656;2023-06-24T00:19:25;15.40;99.90
24560;DHT22;12727;49.934;8.656;2023-06-24T00:21:52;15.60;99.90
24560;DHT22;12727;49.934;8.656;2023-06-24T00:24:18;15.80;99.90
24560;DHT22;12727;49.934;8.656;2023-06-24T00:26:46;15.90;99.90
24560;DHT22;12727;49.934;8.656;2023-06-24T00:29:12;16.00;99.90
24560;DHT22;12727;49.934;8.656;2023-06-24T00:31:38;16.00;99.90
24560;DHT22;12727;49.934;8.656;2023-06-24T00:34:04;16.00;99.90
24560;DHT22;12727;49.934;8.656;2023-06-24T00:36:30;15.70;99.90
24560;DHT22;12727;49.934;8.656;2023-06-24T00:38:57;15.60;99.90
24560;DHT22;12727;49.934;8.656;2023-06-24T00:41:27;15.50;99.90
24560;DHT22;12727;49.934;8.656;2023-06-24T00:43:53;15.50;99.90
24560;DHT22;12727;49.934;8.656;2023-06-24T00:46:18;15.60;99.90
24560;DHT22;12727;49.934;8.656;2023-06-24T00:48:45;15.60;99.90
24560;DHT22;12727;49.934;8.656;2023-06-24T00:51:10;15.40;99.90
24560;DHT22;12727;49.934;8.656;2023-06-24T00:53:36;15.30;99.90
24560;DHT22;12727;49.934;8.656;2023-06-24T00:56:02;15.20;99.90
24560;DHT22;12727;49.934;8.656;2023-06-24T00:58:31;15.00;99.90
24560;DHT22;12727;49.934;8.656;2023-06-24T01:00:57;14.90;99.90
24560;DHT22;12727;49.934;8.656;2023-06-24T01:03:26;14.90;99.90
24560;DHT22;12727;49.934;8.656;2023-06-24T01:05:54;15.00;99.90
24560;DHT22;12727;49.934;8.656;2023-06-24T01:08:20;15.00;99.90
24560;DHT22;12727;49.934;8.656;2023-06-24T01:10:49;15.00;99.90
24560;DHT22;12727;49.934;8.656;2023-06-24T01:13:16;15.10;99.90
24560;DHT22;12727;49.934;8.656;2023-06-24T01:15:42;15.00;99.90
24560;DHT22;12727;49.934;8.656;2023-06-24T01:18:21;15.10;99.90
24560;DHT22;12727;49.934;8.656;2023-06-24T01:20:56;15.20;99.90
24560;DHT22;12727;49.934;8.656;2023-06-24T01:32:43;14.80;99.90
24560;DHT22;12727;49.934;8.656;2023-06-24T01:35:16;14.50;99.90
24560;DHT22;12727;49.934;8.656;2023-06-24T01:37:48;14.60;99.90
24560;DHT22;12727;49.934;8.656;2023-06-24T01:40:26;14.80;99.90
24560;DHT22;12727;49.934;8.656;2023-06-24T01:42:52;14.90;99.90
24560;DHT22;12727;49.934;8.656;2023-06-24T01:45:42;14.90;99.90
24560;DHT22;12727;49.934;8.656;2023-06-24T01:48:15;14.90;99.90
24560;DHT22;12727;49.934;8.656;2023-06-24T01:50:45;15.00;99.90
24560;DHT22;12727;49.934;8.656;2023-06-24T01:53:13;15.20;99.90
24560;DHT22;12727;49.934;8.656;2023-06-24T01:55:41;15.30;99.90
24560;DHT22;12727;49.934;8.656;2023-06-24T01:58:09;15.40;99.90
24560;DHT22;12727;49.934;8.656;2023-06-24T02:00:36;15.30;99.90
24560;DHT22;12727;49.934;8.656;2023-06-24T02:03:03;15.30;99.90
24560;DHT22;12727;49.934;8.656;2023-06-24T02:05:31;15.30;99.90
24560;DHT22;12727;49.934;8.656;2023-06-24T02:08:00;15.30;99.90
24560;DHT22;12727;49.934;8.656;2023-06-24T02:10:27;15.30;99.90
24560;DHT22;12727;49.934;8.656;2023-06-24T02:12:54;15.10;99.90
24560;DHT22;12727;49.934;8.656;2023-06-24T02:15:21;15.10;99.90
24560;DHT22;12727;49.934;8.656;2023-06-24T02:17:50;15.00;99.90
24560;DHT22;12727;49.934;8.656;2023-06-24T02:20:16;15.10;99.90
24560;DHT22;12727;49.934;8.656;2023-06-24T02:22:44;15.00;99.90
24560;DHT22;12727;49.934;8.656;2023-06-24T02:25:10;15.10;99.90
24560;DHT22;12727;49.934;8.656;2023-06-24T02:27:37;15.20;99.90
24560;DHT22;12727;49.934;8.656;2023-06-24T02:30:04;15.00;99.90
24560;DHT22;12727;49.934;8.656;2023-06-24T02:32:31;15.00;99.90
24560;DHT22;12727;49.934;8.656;2023-06-24T02:34:57;14.90;99.90
24560;DHT22;12727;49.934;8.656;2023-06-24T02:37:24;15.00;99.90
24560;DHT22;12727;49.934;8.656;2023-06-24T02:39:50;15.00;99.90
24560;DHT22;12727;49.934;8.656;2023-06-24T02:42:15;14.90;99.90
24560;DHT22;12727;49.934;8.656;2023-06-24T02:44:42;14.90;99.90
24560;DHT22;12727;49.934;8.656;2023-06-24T02:47:09;14.80;99.90
24560;DHT22;12727;49.934;8.656;2023-06-24T02:49:37;14.80;99.90
24560;DHT22;12727;49.934;8.656;2023-06-24T02:52:04;14.60;99.90
24560;DHT22;12727;49.934;8.656;2023-06-24T02:54:30;14.40;99.90
24560;DHT22;12727;49.934;8.656;2023-06-24T02:56:56;14.30;99.90
24560;DHT22;12727;49.934;8.656;2023-06-24T02:59:23;14.10;99.90
24560;DHT22;12727;49.934;8.656;2023-06-24T03:01:50;14.10;99.90
24560;DHT22;12727;49.934;8.656;2023-06-24T03:04:17;14.10;99.90
24560;DHT22;12727;49.934;8.656;2023-06-24T03:06:44;14.40;99.90
24560;DHT22;12727;49.934;8.656;2023-06-24T03:09:10;14.30;99.90
24560;DHT22;12727;49.934;8.656;2023-06-24T03:11:43;14.30;99.90
24560;DHT22;12727;49.934;8.656;2023-06-24T03:14:12;14.30;99.90
24560;DHT22;12727;49.934;8.656;2023-06-24T03:16:38;14.20;99.90
24560;DHT22;12727;49.934;8.656;2023-06-24T03:19:04;14.30;99.90
24560;DHT22;12727;49.934;8.656;2023-06-24T03:21:30;14.50;99.90
24560;DHT22;12727;49.934;8.656;2023-06-24T03:23:56;14.50;99.90
24560;DHT22;12727;49.934;8.656;2023-06-24T03:26:30;14.40;99.90
24560;DHT22;12727;49.934;8.656;2023-06-24T03:28:56;14.30;99.90
24560;DHT22;12727;49.934;8.656;2023-06-24T03:31:22;14.10;99.90
24560;DHT22;12727;49.934;8.656;2023-06-24T03:33:48;14.10;99.90
24560;DHT22;12727;49.934;8.656;2023-06-24T03:36:14;14.40;99.90
24560;DHT22;12727;49.934;8.656;2023-06-24T03:38:40;14.60;99.90
24560;DHT22;12727;49.934;8.656;2023-06-24T03:41:06;14.60;99.90
24560;DHT22;12727;49.934;8.656;2023-06-24T03:43:31;14.60;99.90
24560;DHT22;12727;49.934;8.656;2023-06-24T03:45:57;14.60;99.90
24560;DHT22;12727;49.934;8.656;2023-06-24T03:48:23;14.70;99.90
24560;DHT22;12727;49.934;8.656;2023-06-24T03:50:48;14.80;99.90
24560;DHT22;12727;49.934;8.656;2023-06-24T03:53:14;14.50;99.90
24560;DHT22;12727;49.934;8.656;2023-06-24T03:55:39;14.30;99.90
24560;DHT22;12727;49.934;8.656;2023-06-24T03:58:05;14.20;99.90
24560;DHT22;12727;49.934;8.656;2023-06-24T04:00:30;14.30;99.90
24560;DHT22;12727;49.934;8.656;2023-06-24T04:02:56;14.20;99.90
24560;DHT22;12727;49.934;8.656;2023-06-24T04:05:22;14.40;99.90
24560;DHT22;12727;49.934;8.656;2023-06-24T04:07:48;14.60;99.90
24560;DHT22;12727;49.934;8.656;2023-06-24T04:10:16;14.50;99.90
24560;DHT22;12727;49.934;8.656;2023-06-24T04:12:42;14.40;99.90
24560;DHT22;12727;49.934;8.656;2023-06-24T04:15:08;14.20;99.90
24560;DHT22;12727;49.934;8.656;2023-06-24T04:17:34;14.10;99.90
24560;DHT22;12727;49.934;8.656;2023-06-24T04:19:59;14.20;99.90
24560;DHT22;12727;49.934;8.656;2023-06-24T04:22:25;14.50;99.90
24560;DHT22;12727;49.934;8.656;2023-06-24T04:24:51;14.80;99.90
24560;DHT22;12727;49.934;8.656;2023-06-24T04:27:16;15.00;99.90
24560;DHT22;12727;49.934;8.656;2023-06-24T04:29:42;15.30;99.90
24560;DHT22;12727;49.934;8.656;2023-06-24T04:32:08;15.40;99.90
24560;DHT22;12727;49.934;8.656;2023-06-24T04:34:33;15.40;99.90
24560;DHT22;12727;49.934;8.656;2023-06-24T04:36:59;15.60;99.90
24560;DHT22;12727;49.934;8.656;2023-06-24T04:39:24;15.60;99.90
24560;DHT22;12727;49.934;8.656;2023-06-24T04:41:50;15.70;99.90
24560;DHT22;12727;49.934;8.656;2023-06-24T04:44:16;15.80;99.90
24560;DHT22;12727;49.934;8.656;2023-06-24T04:46:41;15.90;99.90
24560;DHT22;12727;49.934;8.656;2023-06-24T04:49:07;16.10;99.90
24560;DHT22;12727;49.934;8.656;2023-06-24T04:51:33;16.20;99.90
24560;DHT22;12727;49.934;8.656;2023-06-24T04:53:58;16.30;99.90
24560;DHT22;12727;49.934;8.656;2023-06-24T04:56:24;16.50;99.90
24560;DHT22;12727;49.934;8.656;2023-06-24T04:58:51;16.50;99.90
24560;DHT22;12727;49.934;8.656;2023-06-24T05:01:17;16.50;99.90
24560;DHT22;12727;49.934;8.656;2023-06-24T05:03:43;16.60;99.90
24560;DHT22;12727;49.934;8.656;2023-06-24T05:06:08;16.60;99.90
24560;DHT22;12727;49.934;8.656;2023-06-24T05:08:34;16.50;99.90
24560;DHT22;12727;49.934;8.656;2023-06-24T05:10:59;16.70;99.90
24560;DHT22;12727;49.934;8.656;2023-06-24T05:13:26;16.70;99.90
24560;DHT22;12727;49.934;8.656;2023-06-24T05:15:52;16.60;99.90
24560;DHT22;12727;49.934;8.656;2023-06-24T05:18:18;16.70;99.90
24560;DHT22;12727;49.934;8.656;2023-06-24T05:20:43;16.90;99.90
24560;DHT22;12727;49.934;8.656;2023-06-24T05:23:09;17.10;99.90
24560;DHT22;12727;49.934;8.656;2023-06-24T05:25:34;17.40;99.90
24560;DHT22;12727;49.934;8.656;2023-06-24T05:28:00;17.60;99.90
24560;DHT22;12727;49.934;8.656;2023-06-24T05:30:26;17.90;99.90
24560;DHT22;12727;49.934;8.656;2023-06-24T05:32:52;18.00;99.90
24560;DHT22;12727;49.934;8.656;2023-06-24T05:35:17;17.90;99.90
24560;DHT22;12727;49.934;8.656;2023-06-24T05:37:43;17.80;99.90
24560;DHT22;12727;49.934;8.656;2023-06-24T05:40:09;17.80;99.90
24560;DHT22;12727;49.934;8.656;2023-06-24T05:42:34;17.90;99.90
24560;DHT22;12727;49.934;8.656;2023-06-24T05:45:00;18.00;99.90
24560;DHT22;12727;49.934;8.656;2023-06-24T05:47:26;18.20;99.90
24560;DHT22;12727;49.934;8.656;2023-06-24T05:49:51;18.40;99.90
24560;DHT22;12727;49.934;8.656;2023-06-24T05:52:17;18.60;99.90
24560;DHT22;12727;49.934;8.656;2023-06-24T05:54:42;18.80;99.90
24560;DHT22;12727;49.934;8.656;2023-06-24T05:57:08;19.00;99.90
24560;DHT22;12727;49.934;8.656;2023-06-24T05:59:34;19.30;99.90
24560;DHT22;12727;49.934;8.656;2023-06-24T06:02:00;19.60;99.90
24560;DHT22;12727;49.934;8.656;2023-06-24T06:04:27;19.80;99.90
24560;DHT22;12727;49.934;8.656;2023-06-24T06:06:53;20.00;99.90
24560;DHT22;12727;49.934;8.656;2023-06-24T06:09:21;20.20;99.90
24560;DHT22;12727;49.934;8.656;2023-06-24T06:11:47;20.50;99.90
24560;DHT22;12727;49.934;8.656;2023-06-24T06:14:13;20.70;99.90
24560;DHT22;12727;49.934;8.656;2023-06-24T06:16:39;20.90;99.90
24560;DHT22;12727;49.934;8.656;2023-06-24T06:19:04;21.20;99.90
24560;DHT22;12727;49.934;8.656;2023-06-24T06:21:30;21.30;99.90
24560;DHT22;12727;49.934;8.656;2023-06-24T06:23:55;21.50;99.90
24560;DHT22;12727;49.934;8.656;2023-06-24T06:26:21;21.80;99.90
24560;DHT22;12727;49.934;8.656;2023-06-24T06:28:47;22.00;99.90
24560;DHT22;12727;49.934;8.656;2023-06-24T06:31:15;22.40;99.90
24560;DHT22;12727;49.934;8.656;2023-06-24T06:33:41;22.40;99.70
24560;DHT22;12727;49.934;8.656;2023-06-24T06:36:07;22.50;98.80
24560;DHT22;12727;49.934;8.656;2023-06-24T06:38:33;22.60;98.50
24560;DHT22;12727;49.934;8.656;2023-06-24T06:40:59;23.00;98.00
24560;DHT22;12727;49.934;8.656;2023-06-24T06:43:25;23.40;96.80
24560;DHT22;12727;49.934;8.656;2023-06-24T06:45:51;23.50;95.40
24560;DHT22;12727;49.934;8.656;2023-06-24T06:48:16;23.70;95.10
24560;DHT22;12727;49.934;8.656;2023-06-24T06:50:42;23.90;94.40
24560;DHT22;12727;49.934;8.656;2023-06-24T06:53:07;24.10;93.50
24560;DHT22;12727;49.934;8.656;2023-06-24T06:55:33;24.30;92.10
24560;DHT22;12727;49.934;8.656;2023-06-24T06:57:59;24.50;91.60
24560;DHT22;12727;49.934;8.656;2023-06-24T07:00:24;24.60;90.90
24560;DHT22;12727;49.934;8.656;2023-06-24T07:02:50;24.70;90.30
24560;DHT22;12727;49.934;8.656;2023-06-24T07:05:16;24.90;90.00
24560;DHT22;12727;49.934;8.656;2023-06-24T07:07:41;25.00;89.40
24560;DHT22;12727;49.934;8.656;2023-06-24T07:10:09;25.00;88.60
24560;DHT22;12727;49.934;8.656;2023-06-24T07:12:35;24.90;87.00
24560;DHT22;12727;49.934;8.656;2023-06-24T07:15:01;25.00;88.00
24560;DHT22;12727;49.934;8.656;2023-06-24T07:17:26;25.30;85.70
24560;DHT22;12727;49.934;8.656;2023-06-24T07:19:52;25.50;83.60
24560;DHT22;12727;49.934;8.656;2023-06-24T07:22:18;25.60;82.00
24560;DHT22;12727;49.934;8.656;2023-06-24T07:24:43;25.70;81.60
24560;DHT22;12727;49.934;8.656;2023-06-24T07:27:09;25.70;80.40
24560;DHT22;12727;49.934;8.656;2023-06-24T07:29:34;25.80;79.10
24560;DHT22;12727;49.934;8.656;2023-06-24T07:32:00;25.90;77.00
24560;DHT22;12727;49.934;8.656;2023-06-24T07:34:28;26.00;77.60
24560;DHT22;12727;49.934;8.656;2023-06-24T07:36:54;26.40;76.30
24560;DHT22;12727;49.934;8.656;2023-06-24T07:39:20;26.50;74.00
24560;DHT22;12727;49.934;8.656;2023-06-24T07:41:45;26.60;73.60
24560;DHT22;12727;49.934;8.656;2023-06-24T07:44:11;26.80;73.00
24560;DHT22;12727;49.934;8.656;2023-06-24T07:46:36;26.70;72.10
24560;DHT22;12727;49.934;8.656;2023-06-24T07:49:02;26.80;70.80
24560;DHT22;12727;49.934;8.656;2023-06-24T07:51:28;26.70;70.50
24560;DHT22;12727;49.934;8.656;2023-06-24T07:53:53;26.70;70.80
24560;DHT22;12727;49.934;8.656;2023-06-24T07:56:19;26.70;70.20
24560;DHT22;12727;49.934;8.656;2023-06-24T07:58:44;26.70;69.10
24560;DHT22;12727;49.934;8.656;2023-06-24T08:01:10;26.90;68.70
24560;DHT22;12727;49.934;8.656;2023-06-24T08:03:36;27.20;68.00
24560;DHT22;12727;49.934;8.656;2023-06-24T08:06:04;27.30;68.10
24560;DHT22;12727;49.934;8.656;2023-06-24T08:08:31;27.50;66.80
24560;DHT22;12727;49.934;8.656;2023-06-24T08:10:56;27.20;69.20
24560;DHT22;12727;49.934;8.656;2023-06-24T08:13:22;27.40;69.60
24560;DHT22;12727;49.934;8.656;2023-06-24T08:15:47;27.80;67.50
24560;DHT22;12727;49.934;8.656;2023-06-24T08:18:13;28.30;66.90
24560;DHT22;12727;49.934;8.656;2023-06-24T08:20:39;28.40;67.20
24560;DHT22;12727;49.934;8.656;2023-06-24T08:23:04;28.50;67.10
24560;DHT22;12727;49.934;8.656;2023-06-24T08:25:30;28.80;65.60
24560;DHT22;12727;49.934;8.656;2023-06-24T08:27:56;28.60;62.50
24560;DHT22;12727;49.934;8.656;2023-06-24T08:30:21;28.50;62.30
24560;DHT22;12727;49.934;8.656;2023-06-24T08:32:47;28.60;61.60
24560;DHT22;12727;49.934;8.656;2023-06-24T08:35:13;29.10;59.80
24560;DHT22;12727;49.934;8.656;2023-06-24T08:37:39;29.10;59.70
24560;DHT22;12727;49.934;8.656;2023-06-24T08:40:05;29.30;59.60
24560;DHT22;12727;49.934;8.656;2023-06-24T08:42:31;29.50;59.70
24560;DHT22;12727;49.934;8.656;2023-06-24T08:44:57;29.20;58.80
24560;DHT22;12727;49.934;8.656;2023-06-24T08:47:24;29.10;59.20
24560;DHT22;12727;49.934;8.656;2023-06-24T08:49:53;29.40;59.30
24560;DHT22;12727;49.934;8.656;2023-06-24T08:52:25;29.90;58.00
24560;DHT22;12727;49.934;8.656;2023-06-24T08:54:52;30.20;56.80
24560;DHT22;12727;49.934;8.656;2023-06-24T08:57:20;30.30;55.90
24560;DHT22;12727;49.934;8.656;2023-06-24T08:59:46;30.20;55.80
24560;DHT22;12727;49.934;8.656;2023-06-24T09:02:12;30.10;54.60
24560;DHT22;12727;49.934;8.656;2023-06-24T09:04:39;30.60;55.40
24560;DHT22;12727;49.934;8.656;2023-06-24T09:07:05;30.80;54.60
24560;DHT22;12727;49.934;8.656;2023-06-24T09:09:31;30.80;54.20
24560;DHT22;12727;49.934;8.656;2023-06-24T09:11:58;31.10;53.10
24560;DHT22;12727;49.934;8.656;2023-06-24T09:14:25;31.00;53.90
24560;DHT22;12727;49.934;8.656;2023-06-24T09:16:56;31.20;52.90
24560;DHT22;12727;49.934;8.656;2023-06-24T09:19:26;30.70;52.50
24560;DHT22;12727;49.934;8.656;2023-06-24T09:21:56;30.60;52.40
24560;DHT22;12727;49.934;8.656;2023-06-24T09:24:36;30.80;52.10
24560;DHT22;12727;49.934;8.656;2023-06-24T09:27:03;30.70;51.20
24560;DHT22;12727;49.934;8.656;2023-06-24T09:29:33;30.90;52.30
24560;DHT22;12727;49.934;8.656;2023-06-24T09:31:59;30.80;50.80
24560;DHT22;12727;49.934;8.656;2023-06-24T09:34:26;30.60;51.50
24560;DHT22;12727;49.934;8.656;2023-06-24T09:36:55;30.80;50.30
24560;DHT22;12727;49.934;8.656;2023-06-24T09:39:21;30.80;50.30
24560;DHT22;12727;49.934;8.656;2023-06-24T09:41:54;30.90;50.20
24560;DHT22;12727;49.934;8.656;2023-06-24T09:44:20;31.10;50.00
24560;DHT22;12727;49.934;8.656;2023-06-24T09:46:46;31.30;49.60
24560;DHT22;12727;49.934;8.656;2023-06-24T09:49:12;31.50;49.90
24560;DHT22;12727;49.934;8.656;2023-06-24T09:51:39;31.40;49.50
24560;DHT22;12727;49.934;8.656;2023-06-24T09:54:09;31.20;49.20
24560;DHT22;12727;49.934;8.656;2023-06-24T09:56:43;31.20;48.70
24560;DHT22;12727;49.934;8.656;2023-06-24T09:59:11;31.50;48.80
24560;DHT22;12727;49.934;8.656;2023-06-24T10:01:39;31.80;49.10
24560;DHT22;12727;49.934;8.656;2023-06-24T10:04:08;32.10;48.10
24560;DHT22;12727;49.934;8.656;2023-06-24T10:06:34;32.30;47.40
24560;DHT22;12727;49.934;8.656;2023-06-24T10:09:01;32.40;48.50
24560;DHT22;12727;49.934;8.656;2023-06-24T10:11:27;32.10;48.00
24560;DHT22;12727;49.934;8.656;2023-06-24T10:13:53;32.30;47.50
24560;DHT22;12727;49.934;8.656;2023-06-24T10:16:20;31.70;47.50
24560;DHT22;12727;49.934;8.656;2023-06-24T10:18:46;31.50;47.70
24560;DHT22;12727;49.934;8.656;2023-06-24T10:21:13;31.40;47.80
24560;DHT22;12727;49.934;8.656;2023-06-24T10:26:11;31.50;47.60
24560;DHT22;12727;49.934;8.656;2023-06-24T10:29:09;31.60;47.50
24560;DHT22;12727;49.934;8.656;2023-06-24T10:42:40;31.80;42.90
24560;DHT22;12727;49.934;8.656;2023-06-24T10:47:35;32.10;43.90
24560;DHT22;12727;49.934;8.656;2023-06-24T10:50:01;32.40;43.90
24560;DHT22;12727;49.934;8.656;2023-06-24T10:52:27;32.60;43.20
24560;DHT22;12727;49.934;8.656;2023-06-24T10:54:53;32.40;43.80
24560;DHT22;12727;49.934;8.656;2023-06-24T10:57:24;32.50;43.10
24560;DHT22;12727;49.934;8.656;2023-06-24T10:59:52;32.30;42.80
24560;DHT22;12727;49.934;8.656;2023-06-24T11:02:20;32.20;42.50
24560;DHT22;12727;49.934;8.656;2023-06-24T11:07:12;31.80;43.10
24560;DHT22;12727;49.934;8.656;2023-06-24T11:09:40;31.80;43.50
24560;DHT22;12727;49.934;8.656;2023-06-24T11:12:06;32.20;43.90
24560;DHT22;12727;49.934;8.656;2023-06-24T11:14:33;32.70;43.50
24560;DHT22;12727;49.934;8.656;2023-06-24T11:17:03;32.80;42.50
24560;DHT22;12727;49.934;8.656;2023-06-24T11:19:29;32.50;43.00
24560;DHT22;12727;49.934;8.656;2023-06-24T11:21:59;32.40;43.80
24560;DHT22;12727;49.934;8.656;2023-06-24T11:24:27;32.30;42.80
24560;DHT22;12727;49.934;8.656;2023-06-24T11:26:52;31.00;44.30
24560;DHT22;12727;49.934;8.656;2023-06-24T11:29:18;30.50;45.70
24560;DHT22;12727;49.934;8.656;2023-06-24T11:31:45;30.40;46.10
24560;DHT22;12727;49.934;8.656;2023-06-24T11:34:10;30.40;46.70
24560;DHT22;12727;49.934;8.656;2023-06-24T11:36:36;30.40;46.20
24560;DHT22;12727;49.934;8.656;2023-06-24T11:39:02;30.00;47.30
24560;DHT22;12727;49.934;8.656;2023-06-24T11:41:28;29.80;47.70
24560;DHT22;12727;49.934;8.656;2023-06-24T11:43:54;29.60;48.10
24560;DHT22;12727;49.934;8.656;2023-06-24T11:46:26;29.30;47.90
24560;DHT22;12727;49.934;8.656;2023-06-24T11:48:52;29.20;47.70
24560;DHT22;12727;49.934;8.656;2023-06-24T11:51:18;29.00;47.50
24560;DHT22;12727;49.934;8.656;2023-06-24T11:53:45;28.90;47.50
24560;DHT22;12727;49.934;8.656;2023-06-24T11:56:12;28.90;48.30
24560;DHT22;12727;49.934;8.656;2023-06-24T11:58:37;28.70;48.30
24560;DHT22;12727;49.934;8.656;2023-06-24T12:01:03;28.30;48.80
24560;DHT22;12727;49.934;8.656;2023-06-24T12:03:29;28.00;49.50
24560;DHT22;12727;49.934;8.656;2023-06-24T12:05:57;28.20;49.40
24560;DHT22;12727;49.934;8.656;2023-06-24T12:08:23;28.20;49.70
24560;DHT22;12727;49.934;8.656;2023-06-24T12:10:49;28.20;50.30
24560;DHT22;12727;49.934;8.656;2023-06-24T12:13:14;28.10;50.90
24560;DHT22;12727;49.934;8.656;2023-06-24T12:15:40;28.10;50.50
24560;DHT22;12727;49.934;8.656;2023-06-24T12:18:06;28.00;50.50
24560;DHT22;12727;49.934;8.656;2023-06-24T12:20:32;27.90;51.00
24560;DHT22;12727;49.934;8.656;2023-06-24T12:22:58;27.90;50.80
24560;DHT22;12727;49.934;8.656;2023-06-24T12:25:24;27.90;50.70
24560;DHT22;12727;49.934;8.656;2023-06-24T12:27:50;27.90;51.10
24560;DHT22;12727;49.934;8.656;2023-06-24T12:30:15;28.10;50.70
24560;DHT22;12727;49.934;8.656;2023-06-24T12:32:42;28.30;50.10
24560;DHT22;12727;49.934;8.656;2023-06-24T12:35:08;28.40;49.50
24560;DHT22;12727;49.934;8.656;2023-06-24T12:37:37;28.50;50.20
24560;DHT22;12727;49.934;8.656;2023-06-24T12:40:04;28.70;50.60
24560;DHT22;12727;49.934;8.656;2023-06-24T12:42:30;29.00;49.60
24560;DHT22;12727;49.934;8.656;2023-06-24T12:44:56;29.20;48.60
24560;DHT22;12727;49.934;8.656;2023-06-24T12:47:22;29.30;48.30
24560;DHT22;12727;49.934;8.656;2023-06-24T12:49:48;29.30;47.60
24560;DHT22;12727;49.934;8.656;2023-06-24T12:52:14;29.10;47.90
24560;DHT22;12727;49.934;8.656;2023-06-24T12:54:40;28.80;48.20
24560;DHT22;12727;49.934;8.656;2023-06-24T12:57:06;28.80;48.80
24560;DHT22;12727;49.934;8.656;2023-06-24T12:59:32;28.60;49.50
24560;DHT22;12727;49.934;8.656;2023-06-24T13:01:57;28.30;48.80
24560;DHT22;12727;49.934;8.656;2023-06-24T13:04:23;28.00;49.10
24560;DHT22;12727;49.934;8.656;2023-06-24T13:06:53;28.00;48.90
24560;DHT22;12727;49.934;8.656;2023-06-24T13:09:18;27.90;48.50
24560;DHT22;12727;49.934;8.656;2023-06-24T13:11:44;27.80;48.70
24560;DHT22;12727;49.934;8.656;2023-06-24T13:14:10;27.80;49.20
24560;DHT22;12727;49.934;8.656;2023-06-24T13:16:36;27.80;48.70
24560;DHT22;12727;49.934;8.656;2023-06-24T13:19:02;27.70;48.50
24560;DHT22;12727;49.934;8.656;2023-06-24T13:21:31;27.80;49.00
24560;DHT22;12727;49.934;8.656;2023-06-24T13:23:57;27.70;49.10
24560;DHT22;12727;49.934;8.656;2023-06-24T13:26:22;27.60;49.20
24560;DHT22;12727;49.934;8.656;2023-06-24T13:28:49;27.60;49.40
24560;DHT22;12727;49.934;8.656;2023-06-24T13:31:15;27.90;49.50
24560;DHT22;12727;49.934;8.656;2023-06-24T13:33:41;28.00;49.10
24560;DHT22;12727;49.934;8.656;2023-06-24T13:36:08;28.10;48.90
24560;DHT22;12727;49.934;8.656;2023-06-24T13:38:37;28.30;48.30
24560;DHT22;12727;49.934;8.656;2023-06-24T13:41:02;28.30;48.40
24560;DHT22;12727;49.934;8.656;2023-06-24T13:43:31;28.50;48.40
24560;DHT22;12727;49.934;8.656;2023-06-24T13:45:56;28.60;47.90
24560;DHT22;12727;49.934;8.656;2023-06-24T13:48:23;28.50;48.50
24560;DHT22;12727;49.934;8.656;2023-06-24T13:50:49;28.50;48.90
24560;DHT22;12727;49.934;8.656;2023-06-24T13:53:14;28.60;48.30
24560;DHT22;12727;49.934;8.656;2023-06-24T13:55:40;28.40;48.60
24560;DHT22;12727;49.934;8.656;2023-06-24T13:58:06;28.40;49.20
24560;DHT22;12727;49.934;8.656;2023-06-24T14:00:31;28.30;49.90
24560;DHT22;12727;49.934;8.656;2023-06-24T14:02:57;28.10;50.00
24560;DHT22;12727;49.934;8.656;2023-06-24T14:05:23;28.00;49.70
24560;DHT22;12727;49.934;8.656;2023-06-24T14:07:48;28.00;50.00
24560;DHT22;12727;49.934;8.656;2023-06-24T14:10:14;27.90;49.20
24560;DHT22;12727;49.934;8.656;2023-06-24T14:12:40;27.90;49.00
24560;DHT22;12727;49.934;8.656;2023-06-24T14:15:08;28.00;50.00
24560;DHT22;12727;49.934;8.656;2023-06-24T14:17:34;28.20;49.00
24560;DHT22;12727;49.934;8.656;2023-06-24T14:20:00;28.30;48.80
24560;DHT22;12727;49.934;8.656;2023-06-24T14:22:26;28.20;48.60
24560;DHT22;12727;49.934;8.656;2023-06-24T14:24:51;28.10;48.80
24560;DHT22;12727;49.934;8.656;2023-06-24T14:27:17;28.00;49.20
24560;DHT22;12727;49.934;8.656;2023-06-24T14:29:43;28.20;49.90
24560;DHT22;12727;49.934;8.656;2023-06-24T14:32:08;28.20;49.10
24560;DHT22;12727;49.934;8.656;2023-06-24T14:34:34;28.30;48.90
24560;DHT22;12727;49.934;8.656;2023-06-24T14:37:00;28.30;48.80
24560;DHT22;12727;49.934;8.656;2023-06-24T14:39:25;28.30;48.70
24560;DHT22;12727;49.934;8.656;2023-06-24T14:41:51;28.40;49.10
24560;DHT22;12727;49.934;8.656;2023-06-24T14:44:17;28.40;48.90
24560;DHT22;12727;49.934;8.656;2023-06-24T14:46:42;28.30;48.60
24560;DHT22;12727;49.934;8.656;2023-06-24T14:49:08;28.00;48.60
24560;DHT22;12727;49.934;8.656;2023-06-24T14:51:33;27.90;49.10
24560;DHT22;12727;49.934;8.656;2023-06-24T14:53:59;27.80;49.70
24560;DHT22;12727;49.934;8.656;2023-06-24T14:56:24;27.80;50.60
24560;DHT22;12727;49.934;8.656;2023-06-24T14:58:51;27.90;50.40
24560;DHT22;12727;49.934;8.656;2023-06-24T15:01:16;27.90;50.30
24560;DHT22;12727;49.934;8.656;2023-06-24T15:03:42;27.80;49.60
24560;DHT22;12727;49.934;8.656;2023-06-24T15:06:07;27.90;49.70
24560;DHT22;12727;49.934;8.656;2023-06-24T15:08:33;28.10;49.40
24560;DHT22;12727;49.934;8.656;2023-06-24T15:10:58;28.20;49.80
24560;DHT22;12727;49.934;8.656;2023-06-24T15:13:24;28.20;49.50
24560;DHT22;12727;49.934;8.656;2023-06-24T15:15:50;28.20;49.40
24560;DHT22;12727;49.934;8.656;2023-06-24T15:18:17;28.30;49.70
24560;DHT22;12727;49.934;8.656;2023-06-24T15:20:43;28.50;49.30
24560;DHT22;12727;49.934;8.656;2023-06-24T15:23:08;28.40;48.70
24560;DHT22;12727;49.934;8.656;2023-06-24T15:25:34;28.30;48.60
24560;DHT22;12727;49.934;8.656;2023-06-24T15:28:00;28.30;48.60
24560;DHT22;12727;49.934;8.656;2023-06-24T15:30:26;28.40;48.60
24560;DHT22;12727;49.934;8.656;2023-06-24T15:32:52;28.40;48.70
24560;DHT22;12727;49.934;8.656;2023-06-24T15:35:18;28.50;48.90
24560;DHT22;12727;49.934;8.656;2023-06-24T15:37:44;28.40;48.50
24560;DHT22;12727;49.934;8.656;2023-06-24T15:40:10;28.30;48.50
24560;DHT22;12727;49.934;8.656;2023-06-24T15:42:36;28.20;48.60
24560;DHT22;12727;49.934;8.656;2023-06-24T15:45:04;28.20;48.70
24560;DHT22;12727;49.934;8.656;2023-06-24T15:47:37;28.10;48.50
24560;DHT22;12727;49.934;8.656;2023-06-24T15:50:03;28.00;48.30
24560;DHT22;12727;49.934;8.656;2023-06-24T15:52:34;28.00;48.60
24560;DHT22;12727;49.934;8.656;2023-06-24T15:55:00;28.00;48.20